weather.gov     
National Weather Service

Terminal Aerodrome Forecast
NWS Homepage
This page is being discontinued on March 12, 2014.
The same data is available at this site. Please update your bookmarks.
Thank you, and we apologize for the inconvenience.
Please send an email to SR-SRH.Webmaster@noaa.gov with any concerns.


Current Version
Previous Version:    01  02  03  04  05  06  07  08  09  10  11  12  13  14  15  16  17  18  19  20  21  22  23  24  25  26  27  28  29  30  
   31  32  33  
[Printable]
372
FTUS44 KTSA 180500
TAFFSM
TAF
KFSM 180537Z 1806/1906 10008KT 6SM -DZ BR SCT015 OVC045
     FM180800 10006KT 5SM BR SCT008 BKN015
     FM180900 08008KT 4SM BR OVC007
     FM181200 07006KT 2SM BR OVC004
     FM181600 08005KT 4SM BR OVC007
     FM182200 10005KT 5SM BR OVC012
     FM190100 05003KT 4SM BR OVC007=


U.S. Dept. of Commerce
NOAA National Weather Service
1325 East West Highway
Silver Spring, MD 20910
E-mail: w-nws.webmaster@noaa.gov
Page last modified: May 16, 2007
NATIONAL WEATHER SERVICE: for Safety, for Work, for Fun - FOR LIFE